Time;durP1;ratioP1;P1;durP2;ratioP2;P2;SDS_P1;SDS_P2;PMS_P1;PMS_P2;Temp;Humidity;BMP_temperature;BMP_pressure;BME280_temperature;BME280_humidity;BME280_pressure;Samples;Min_cycle;Max_cycle;Signal;HPM_P1;HPM_P2
2022/09/10 00:02:02;;;;;;;18.80;9.10;;;;;;;17.29;89.68;98834.87;1748210;81;20990;-79
2022/09/10 00:04:27;;;;;;;21.80;9.45;;;;;;;17.26;90.13;98840.30;1758343;81;21023;-80
2022/09/10 00:06:54;;;;;;;19.27;9.83;;;;;;;17.24;89.83;98832.97;1750839;81;20952;-79
2022/09/10 00:09:21;;;;;;;15.72;8.78;;;;;;;17.23;89.57;98828.19;1732110;81;21092;-80
2022/09/10 00:11:48;;;;;;;16.25;8.80;;;;;;;17.21;89.60;98834.44;1758669;81;21565;-81
2022/09/10 00:14:19;;;;;;;16.32;9.03;;;;;;;17.19;88.20;98837.17;1756433;81;21055;-80
2022/09/10 00:16:47;;;;;;;18.82;9.95;;;;;;;17.15;89.39;98836.10;1756291;80;21070;-80
2022/09/10 00:19:14;;;;;;;18.65;10.28;;;;;;;17.13;89.67;98837.52;1738310;81;21087;-79
2022/09/10 00:21:43;;;;;;;16.23;9.63;;;;;;;17.11;89.29;98836.77;1752500;81;21038;-80
2022/09/10 00:24:10;;;;;;;17.05;9.23;;;;;;;17.14;90.80;98837.89;1753929;81;21554;-79
2022/09/10 00:26:38;;;;;;;22.80;9.73;;;;;;;17.20;91.02;98845.42;1749460;82;20984;-79
2022/09/10 00:29:08;;;;;;;17.15;9.83;;;;;;;17.23;89.69;98834.75;1736795;80;20983;-79
2022/09/10 00:31:36;;;;;;;14.98;8.43;;;;;;;17.26;90.73;98829.31;1727643;82;21494;-80
2022/09/10 00:34:04;;;;;;;13.78;8.83;;;;;;;17.27;89.39;98827.55;1739956;82;20995;-79
2022/09/10 00:36:35;;;;;;;18.10;10.00;;;;;;;17.26;90.29;98826.69;1725475;82;21022;-80
2022/09/10 00:39:07;;;;;;;20.88;10.32;;;;;;;17.29;90.71;98832.25;1713268;82;21036;-79
2022/09/10 00:41:38;;;;;;;20.43;9.85;;;;;;;17.33;91.12;98833.77;1733758;82;20998;-79
2022/09/10 00:44:38;;;;;;;16.82;9.35;;;;;;;17.37;90.98;98819.97;1736582;82;21485;-80
2022/09/10 00:47:25;;;;;;;22.58;9.50;;;;;;;17.39;90.33;98820.28;1739779;82;21474;-80
2022/09/10 00:50:04;;;;;;;18.07;9.55;;;;;;;17.42;90.90;98814.83;1726279;82;21074;-80
2022/09/10 00:52:32;;;;;;;21.27;9.75;;;;;;;17.47;91.64;98816.73;1742666;82;21524;-80
2022/09/10 00:54:59;;;;;;;17.00;9.33;;;;;;;17.55;91.56;98807.54;1740390;82;21093;-80
2022/09/10 00:57:28;;;;;;;14.63;9.18;;;;;;;17.58;90.98;98795.55;1719729;82;20982;-79
2022/09/10 01:00:06;;;;;;;15.10;8.83;;;;;;;17.53;90.17;98790.57;1740323;82;21007;-80
2022/09/10 01:02:33;;;;;;;16.57;9.35;;;;;;;17.54;90.33;98786.16;1740273;82;20961;-80
2022/09/10 01:05:02;;;;;;;16.17;9.05;;;;;;;17.56;90.56;98786.91;1740337;82;21509;-80
2022/09/10 01:07:30;;;;;;;16.23;9.40;;;;;;;17.55;90.10;98783.89;1744847;81;21480;-79
2022/09/10 01:09:59;;;;;;;14.75;8.48;;;;;;;17.56;90.01;98793.48;1739090;82;20966;-79
2022/09/10 01:13:04;;;;;;;16.35;8.88;;;;;;;17.52;89.98;98784.09;1715108;83;21536;-79
2022/09/10 01:15:49;;;;;;;16.67;8.18;;;;;;;17.55;90.64;98778.62;1684861;84;21028;-81
2022/09/10 01:18:36;;;;;;;20.95;9.18;;;;;;;17.50;89.18;98776.28;1709373;83;21097;-79
2022/09/10 01:21:16;;;;;;;16.75;8.95;;;;;;;17.48;90.47;98777.68;1705272;84;21043;-80
2022/09/10 01:24:11;;;;;;;15.28;9.40;;;;;;;17.45;89.61;98762.59;1709802;83;21035;-81
2022/09/10 01:27:11;;;;;;;18.50;9.48;;;;;;;17.42;89.97;98763.59;1708804;84;21031;-81
2022/09/10 01:30:05;;;;;;;16.97;9.25;;;;;;;17.41;90.42;98765.02;1709577;83;21039;-79
2022/09/10 01:33:14;;;;;;;19.40;9.18;;;;;;;17.41;89.64;98759.28;1692879;84;21542;-80
2022/09/10 01:35:52;;;;;;;14.28;9.78;;;;;;;17.45;91.02;98767.84;1708223;83;21003;-81
2022/09/10 01:38:35;;;;;;;17.85;9.10;;;;;;;17.50;91.51;98767.92;1708243;84;21014;-79
2022/09/10 01:41:04;;;;;;;24.67;9.93;;;;;;;17.56;90.92;98760.15;1708685;83;21494;-80
2022/09/10 01:43:33;;;;;;;20.90;10.15;;;;;;;17.61;91.14;98751.54;1728610;83;21030;-80
2022/09/10 01:46:18;;;;;;;20.60;10.75;;;;;;;17.64;91.27;98751.34;1708970;83;21046;-80
2022/09/10 01:49:12;;;;;;;19.35;10.70;;;;;;;17.70;91.55;98749.66;1708638;83;21082;-79
2022/09/10 01:52:09;;;;;;;22.35;10.40;;;;;;;17.73;91.82;98747.33;1709027;83;22135;-80
2022/09/10 01:54:58;;;;;;;15.63;9.78;;;;;;;17.75;91.23;98745.94;1698070;84;21029;-79
2022/09/10 01:57:49;;;;;;;19.05;10.48;;;;;;;17.78;90.90;98740.47;1679546;84;21561;-80
2022/09/10 02:00:18;;;;;;;20.55;10.43;;;;;;;17.80;91.20;98735.48;1708583;84;21050;-79
2022/09/10 02:03:10;;;;;;;16.35;9.38;;;;;;;17.79;90.19;98727.72;1708739;83;21480;-79
2022/09/10 02:05:40;;;;;;;20.40;10.18;;;;;;;17.73;90.25;98735.50;1712665;83;20990;-80
2022/09/10 02:08:19;;;;;;;17.50;10.65;;;;;;;17.76;91.03;98739.72;1713514;83;21042;-79
2022/09/10 02:10:58;;;;;;;17.23;10.65;;;;;;;17.80;91.03;98730.23;1713747;83;21002;-78
2022/09/10 02:13:30;;;;;;;20.37;10.43;;;;;;;17.80;90.79;98722.34;1722289;83;21032;-79
2022/09/10 02:16:30;;;;;;;18.65;10.08;;;;;;;17.76;90.23;98716.89;1713508;83;21058;-78
2022/09/10 02:18:59;;;;;;;20.57;10.15;;;;;;;17.78;90.53;98711.55;1721491;83;21054;-79
2022/09/10 02:21:27;;;;;;;19.85;10.78;;;;;;;17.79;90.98;98712.78;1713719;84;20998;-79
2022/09/10 02:24:04;;;;;;;24.07;11.95;;;;;;;17.82;89.80;98702.54;1713517;83;21058;-79
2022/09/10 02:26:29;;;;;;;26.00;11.80;;;;;;;17.75;89.74;98706.02;1713312;84;21026;-78
2022/09/10 02:28:56;;;;;;;19.77;11.18;;;;;;;17.76;90.53;98707.70;1713534;84;21097;-80
2022/09/10 02:31:22;;;;;;;21.55;10.85;;;;;;;17.75;90.97;98691.56;1713615;83;21539;-79
2022/09/10 02:33:50;;;;;;;20.02;10.93;;;;;;;17.77;90.80;98700.67;1722010;83;21013;-78
2022/09/10 02:36:16;;;;;;;24.43;11.45;;;;;;;17.79;91.14;98687.80;1725065;83;21541;-79
2022/09/10 02:38:43;;;;;;;22.05;10.75;;;;;;;17.82;90.80;98692.86;1706824;83;21059;-79
2022/09/10 02:41:10;;;;;;;23.62;12.63;;;;;;;17.80;90.41;98689.48;1725971;83;21053;-79
2022/09/10 02:43:37;;;;;;;20.27;11.70;;;;;;;17.81;90.79;98691.66;1729923;83;21029;-79
2022/09/10 02:46:08;;;;;;;22.50;12.25;;;;;;;17.77;90.55;98705.94;1708414;83;21507;-79
2022/09/10 02:48:36;;;;;;;21.68;12.23;;;;;;;17.67;90.80;98702.54;1708777;83;21744;-79
2022/09/10 02:51:03;;;;;;;23.60;12.00;;;;;;;17.63;91.28;98708.08;1708654;83;21026;-79
2022/09/10 02:53:30;;;;;;;22.35;12.03;;;;;;;17.58;91.04;98705.70;1708775;83;21022;-80
2022/09/10 02:55:59;;;;;;;23.83;12.00;;;;;;;17.53;91.40;98713.04;1728479;83;21017;-82
2022/09/10 02:58:26;;;;;;;19.27;11.80;;;;;;;17.55;92.45;98711.16;1708635;83;20983;-81
2022/09/10 03:00:57;;;;;;;22.50;10.63;;;;;;;17.60;92.95;98702.99;1708576;83;21010;-80
2022/09/10 03:03:23;;;;;;;22.93;11.63;;;;;;;17.65;93.07;98708.36;1704521;83;21570;-79
2022/09/10 03:05:50;;;;;;;25.72;12.18;;;;;;;17.69;92.93;98700.66;1708819;83;21357;-79
2022/09/10 03:08:17;;;;;;;37.85;13.00;;;;;;;17.72;92.52;98702.72;1724550;83;20968;-79
2022/09/10 03:10:44;;;;;;;28.45;11.80;;;;;;;17.70;92.47;98701.50;1728951;83;21514;-78
2022/09/10 03:13:11;;;;;;;19.05;11.33;;;;;;;17.67;91.72;98701.22;1753823;80;20971;-78
2022/09/10 03:15:38;;;;;;;26.60;11.95;;;;;;;17.65;91.49;98693.90;1737014;81;21046;-79
2022/09/10 03:18:05;;;;;;;24.60;12.45;;;;;;;17.67;91.99;98701.22;1759210;81;20971;-79
2022/09/10 03:20:32;;;;;;;20.80;11.65;;;;;;;17.68;91.94;98695.02;1759392;81;21034;-79
2022/09/10 03:22:58;;;;;;;29.65;13.70;;;;;;;17.69;92.11;98690.63;1752805;81;20999;-79
2022/09/10 03:25:25;;;;;;;24.98;13.00;;;;;;;17.70;91.59;98690.98;1734600;82;21543;-80
2022/09/10 03:27:53;;;;;;;27.93;13.18;;;;;;;17.70;91.92;98690.50;1740556;81;20965;-78
2022/09/10 03:30:21;;;;;;;32.08;13.55;;;;;;;17.67;91.68;98699.91;1742724;82;21030;-79
2022/09/10 03:32:49;;;;;;;30.62;14.87;;;;;;;17.66;92.28;98702.63;1737101;82;21041;-81
2022/09/10 03:35:17;;;;;;;26.80;13.38;;;;;;;17.64;92.46;98694.82;1737833;82;21108;-79
2022/09/10 03:37:44;;;;;;;25.37;13.98;;;;;;;17.64;92.08;98700.08;1740405;82;21037;-79
2022/09/10 03:40:10;;;;;;;28.25;13.85;;;;;;;17.60;92.77;98706.46;1722535;82;21028;-79
2022/09/10 03:42:37;;;;;;;25.27;14.30;;;;;;;17.53;92.88;98703.84;1740045;82;20994;-81
2022/09/10 03:45:05;;;;;;;29.23;14.10;;;;;;;17.51;92.55;98708.34;1743438;82;21249;-81
2022/09/10 03:47:32;;;;;;;28.87;14.03;;;;;;;17.46;93.43;98715.64;1722790;82;21006;-79
2022/09/10 03:50:00;;;;;;;31.23;13.98;;;;;;;17.47;93.63;98724.76;1759459;81;21034;-83
2022/09/10 03:52:28;;;;;;;29.45;13.40;;;;;;;17.48;94.56;98729.54;1750172;81;21063;-80
2022/09/10 03:54:55;;;;;;;30.65;14.60;;;;;;;17.46;92.75;98725.68;1734766;82;20971;-80
2022/09/10 03:57:22;;;;;;;39.05;15.58;;;;;;;17.44;93.80;98722.77;1738469;82;21030;-79
2022/09/10 03:59:49;;;;;;;37.42;15.23;;;;;;;17.45;94.60;98713.97;1740007;82;21046;-79
2022/09/10 04:02:16;;;;;;;30.02;13.83;;;;;;;17.47;93.96;98710.30;1722263;82;21005;-79
2022/09/10 04:04:44;;;;;;;33.10;14.47;;;;;;;17.52;94.02;98699.98;1737041;82;21054;-82
2022/09/10 04:07:10;;;;;;;42.35;14.80;;;;;;;17.52;93.96;98696.88;1739427;82;20993;-81
2022/09/10 04:09:37;;;;;;;35.60;16.12;;;;;;;17.55;94.37;98696.70;1738675;82;20979;-81
2022/09/10 04:12:04;;;;;;;31.87;14.60;;;;;;;17.53;93.73;98701.22;1733788;82;21104;-83
2022/09/10 04:14:33;;;;;;;35.73;15.68;;;;;;;17.50;92.44;98697.44;1736903;82;21031;-82
2022/09/10 04:17:01;;;;;;;31.57;14.43;;;;;;;17.43;93.77;98697.45;1761266;81;21011;-80
2022/09/10 04:19:28;;;;;;;34.53;15.20;;;;;;;17.38;92.69;98692.92;1742024;82;21041;-79
2022/09/10 04:21:56;;;;;;;33.63;15.32;;;;;;;17.26;93.13;98694.02;1742934;82;21042;-80
2022/09/10 04:24:23;;;;;;;33.30;15.15;;;;;;;17.22;94.24;98700.39;1704774;83;21043;-79
2022/09/10 04:26:52;;;;;;;34.33;15.30;;;;;;;17.15;95.17;98712.65;1751767;81;21507;-80
2022/09/10 04:29:18;;;;;;;29.40;14.33;;;;;;;17.15;94.34;98715.28;1742703;82;21523;-79
2022/09/10 04:31:45;;;;;;;34.13;14.75;;;;;;;17.14;95.00;98715.75;1741497;82;21453;-79
2022/09/10 04:34:14;;;;;;;25.62;12.63;;;;;;;17.15;94.54;98714.83;1700073;83;21531;-79
2022/09/10 04:36:42;;;;;;;24.45;13.15;;;;;;;17.19;95.50;98722.05;1740525;82;20996;-80
2022/09/10 04:39:09;;;;;;;25.62;12.10;;;;;;;17.20;94.70;98719.81;1739368;82;20999;-80
2022/09/10 04:41:36;;;;;;;24.30;11.88;;;;;;;17.26;94.15;98720.77;1740309;82;21069;-79
2022/09/10 04:44:05;;;;;;;23.90;12.60;;;;;;;17.23;94.36;98719.61;1736689;82;21008;-79
2022/09/10 04:46:33;;;;;;;29.10;13.72;;;;;;;17.23;94.67;98726.18;1738364;82;20969;-80
2022/09/10 04:49:02;;;;;;;26.62;12.88;;;;;;;17.22;94.22;98721.41;1735518;82;21691;-79
2022/09/10 04:51:29;;;;;;;30.52;13.62;;;;;;;17.23;94.29;98730.98;1730000;82;21507;-79
2022/09/10 04:53:56;;;;;;;32.88;15.05;;;;;;;17.23;94.40;98734.06;1730712;82;21014;-80
2022/09/10 04:56:25;;;;;;;31.70;14.10;;;;;;;17.12;95.35;98725.98;1738487;82;21026;-80
2022/09/10 04:58:52;;;;;;;31.45;14.95;;;;;;;17.14;95.53;98719.69;1739392;82;21499;-78
2022/09/10 05:01:19;;;;;;;28.38;14.38;;;;;;;17.14;96.01;98724.11;1733009;82;21028;-79
2022/09/10 05:03:47;;;;;;;27.07;13.00;;;;;;;17.13;96.51;98707.51;1726183;82;21007;-81
2022/09/10 05:06:15;;;;;;;25.80;13.40;;;;;;;17.16;95.83;98700.75;1739711;82;21006;-79
2022/09/10 05:08:43;;;;;;;27.20;13.85;;;;;;;17.19;95.03;98693.15;1737452;82;21039;-79
2022/09/10 05:11:10;;;;;;;30.32;14.65;;;;;;;17.23;94.98;98699.47;1736683;82;21072;-79
2022/09/10 05:13:36;;;;;;;23.15;12.28;;;;;;;17.25;95.41;98694.97;1740103;82;21038;-78
2022/09/10 05:16:05;;;;;;;20.20;12.73;;;;;;;17.32;96.25;98691.98;1740171;82;21508;-79
2022/09/10 05:18:33;;;;;;;23.80;11.73;;;;;;;17.37;95.63;98689.91;1741846;81;20975;-79
2022/09/10 05:21:00;;;;;;;33.75;11.57;;;;;;;17.44;95.18;98692.55;1728333;82;21309;-79
2022/09/10 05:23:27;;;;;;;23.87;11.55;;;;;;;17.45;94.79;98699.04;1712417;82;21040;-80
2022/09/10 05:25:55;;;;;;;19.90;10.58;;;;;;;17.52;95.07;98698.19;1742567;82;20993;-80
2022/09/10 05:28:23;;;;;;;14.07;9.25;;;;;;;17.59;94.60;98689.49;1741376;82;21572;-80
2022/09/10 05:30:50;;;;;;;18.00;10.08;;;;;;;17.59;94.41;98686.39;1740446;82;21562;-80
2022/09/10 05:33:18;;;;;;;19.80;10.65;;;;;;;17.66;94.02;98691.63;1714913;82;21038;-78
2022/09/10 05:35:50;;;;;;;20.43;10.82;;;;;;;17.68;94.34;98679.23;1743900;82;20959;-78
2022/09/10 05:38:17;;;;;;;25.10;11.60;;;;;;;17.76;94.46;98680.09;1724673;82;21073;-80
2022/09/10 05:40:44;;;;;;;32.20;12.88;;;;;;;17.81;93.66;98668.00;1731234;82;20997;-80
2022/09/10 05:43:11;;;;;;;26.35;12.70;;;;;;;17.85;94.03;98671.68;1737370;82;21002;-78
2022/09/10 05:45:38;;;;;;;19.90;11.60;;;;;;;17.90;93.60;98675.33;1739185;82;21070;-79
2022/09/10 05:48:05;;;;;;;25.40;11.73;;;;;;;17.99;93.96;98673.94;1739982;82;21535;-79
2022/09/10 05:50:32;;;;;;;22.48;11.48;;;;;;;18.07;93.35;98661.98;1740308;82;21013;-79
2022/09/10 05:53:00;;;;;;;22.32;11.75;;;;;;;18.13;93.18;98664.70;1731829;82;21062;-80
2022/09/10 05:55:30;;;;;;;20.30;11.22;;;;;;;18.18;93.04;98658.66;1728527;82;21034;-79
2022/09/10 05:57:57;;;;;;;25.27;11.10;;;;;;;18.28;93.06;98658.48;1717989;82;21056;-81
2022/09/10 06:00:25;;;;;;;20.10;11.03;;;;;;;18.41;93.41;98656.38;1742650;82;21073;-79
2022/09/10 06:02:56;;;;;;;21.15;11.05;;;;;;;18.52;92.91;98660.45;1742204;82;21015;-78
2022/09/10 06:05:27;;;;;;;20.65;13.18;;;;;;;18.58;92.02;98675.02;1741454;82;21009;-78
2022/09/10 06:07:55;;;;;;;22.90;13.20;;;;;;;18.65;91.49;98675.00;1742546;82;20978;-78
2022/09/10 06:10:22;;;;;;;23.95;13.90;;;;;;;18.66;90.87;98671.41;1742646;82;21463;-78
2022/09/10 06:12:51;;;;;;;19.52;11.95;;;;;;;18.65;90.78;98669.25;1742365;82;21534;-79
2022/09/10 06:15:20;;;;;;;21.33;12.95;;;;;;;18.72;90.64;98671.03;1741915;82;21077;-78
2022/09/10 06:17:48;;;;;;;21.87;12.70;;;;;;;18.71;90.77;98679.86;1705732;83;20960;-81
2022/09/10 06:20:16;;;;;;;22.70;13.70;;;;;;;18.73;90.63;98676.66;1761173;80;21016;-80
2022/09/10 06:22:44;;;;;;;23.92;12.20;;;;;;;18.71;90.79;98672.44;1734725;83;20994;-79
2022/09/10 06:25:12;;;;;;;18.73;11.78;;;;;;;18.72;91.00;98668.40;1734400;82;21066;-79
2022/09/10 06:27:39;;;;;;;19.57;11.38;;;;;;;18.70;90.63;98678.16;1734413;83;20987;-79
2022/09/10 06:30:08;;;;;;;15.78;11.25;;;;;;;18.74;90.35;98674.41;1737555;81;20972;-79
2022/09/10 06:32:38;;;;;;;18.67;11.50;;;;;;;18.76;91.02;98679.55;1719520;82;21033;-78
2022/09/10 06:35:05;;;;;;;22.58;12.37;;;;;;;18.82;91.10;98677.86;1742535;82;21006;-83
2022/09/10 06:37:33;;;;;;;18.90;11.75;;;;;;;18.87;91.26;98677.94;1742433;82;21065;-80
2022/09/10 06:40:02;;;;;;;18.20;12.15;;;;;;;18.98;91.32;98686.47;1742839;82;21316;-78
2022/09/10 06:42:31;;;;;;;22.80;12.90;;;;;;;18.98;91.72;98689.55;1751703;82;21030;-79
2022/09/10 06:44:59;;;;;;;22.55;12.60;;;;;;;19.00;91.71;98682.39;1736042;82;21000;-80
2022/09/10 06:47:33;;;;;;;18.85;11.65;;;;;;;19.01;91.36;98686.73;1710158;83;21084;-79
2022/09/10 06:50:00;;;;;;;20.70;12.98;;;;;;;18.98;91.36;98689.10;1740203;82;21732;-79
2022/09/10 06:52:29;;;;;;;29.23;13.38;;;;;;;18.94;91.49;98692.88;1740688;82;21042;-80
2022/09/10 06:54:58;;;;;;;23.25;13.70;;;;;;;18.97;91.52;98690.52;1739538;82;21477;-80
2022/09/10 06:57:32;;;;;;;25.68;13.65;;;;;;;18.93;92.10;98690.34;1736417;82;21036;-79
2022/09/10 07:00:00;;;;;;;20.32;12.88;;;;;;;18.94;92.12;98684.98;1753120;82;21003;-80
2022/09/10 07:02:28;;;;;;;20.88;13.45;;;;;;;19.00;91.82;98687.66;1720673;82;21052;-80
2022/09/10 07:04:55;;;;;;;20.12;12.73;;;;;;;19.00;92.07;98679.30;1749130;82;20951;-83
2022/09/10 07:07:22;;;;;;;24.52;12.78;;;;;;;19.07;92.02;98681.05;1740007;82;21024;-80
2022/09/10 07:09:50;;;;;;;17.92;11.80;;;;;;;19.10;91.73;98671.64;1740283;82;20998;-79
2022/09/10 07:12:17;;;;;;;23.60;11.40;;;;;;;19.21;91.28;98670.91;1740106;82;20981;-79
2022/09/10 07:14:45;;;;;;;25.45;11.95;;;;;;;19.27;91.16;98671.32;1716997;82;21028;-78
2022/09/10 07:17:12;;;;;;;27.55;12.93;;;;;;;19.31;91.16;98663.22;1727248;83;21070;-79
2022/09/10 07:19:39;;;;;;;30.85;13.93;;;;;;;19.37;90.93;98667.59;1699405;84;21031;-78
2022/09/10 07:22:08;;;;;;;23.40;11.53;;;;;;;19.41;91.36;98661.64;1700525;84;21547;-79
2022/09/10 07:24:36;;;;;;;20.12;12.23;;;;;;;19.56;91.18;98660.59;1711033;83;21064;-79
2022/09/10 07:27:05;;;;;;;19.90;12.35;;;;;;;19.71;90.98;98660.03;1712924;83;21015;-79
2022/09/10 07:29:34;;;;;;;17.67;11.25;;;;;;;19.81;90.42;98661.07;1717909;83;21527;-78
2022/09/10 07:32:03;;;;;;;20.35;11.45;;;;;;;19.90;90.92;98662.72;1730941;83;21500;-78
2022/09/10 07:34:30;;;;;;;19.48;10.98;;;;;;;20.07;90.83;98668.94;1727222;83;21537;-79
2022/09/10 07:36:57;;;;;;;15.72;9.98;;;;;;;20.21;89.72;98652.13;1707200;84;21008;-80
2022/09/10 07:39:24;;;;;;;18.10;10.35;;;;;;;20.30;89.50;98658.08;1727233;83;21499;-79
2022/09/10 07:41:51;;;;;;;17.80;10.32;;;;;;;20.40;89.06;98651.66;1707122;84;21030;-79
2022/09/10 07:44:19;;;;;;;21.97;10.13;;;;;;;20.41;89.25;98656.83;1723903;83;21045;-78
2022/09/10 07:46:47;;;;;;;19.82;10.40;;;;;;;20.55;88.65;98658.92;1705265;84;21036;-79
2022/09/10 07:49:16;;;;;;;13.85;9.33;;;;;;;20.66;88.18;98653.25;1727012;83;21043;-79
2022/09/10 07:51:44;;;;;;;17.20;10.28;;;;;;;20.77;87.80;98651.16;1706897;84;21064;-80
2022/09/10 07:54:14;;;;;;;19.98;10.30;;;;;;;20.86;87.27;98652.27;1685133;84;21154;-79
2022/09/10 07:56:42;;;;;;;16.40;9.85;;;;;;;20.95;86.73;98652.04;1719744;82;20991;-79
2022/09/10 07:59:12;;;;;;;22.50;9.88;;;;;;;21.08;87.05;98644.88;1751932;82;21054;-79
2022/09/10 08:01:41;;;;;;;14.13;9.28;;;;;;;21.17;85.69;98644.66;1705677;84;20985;-78
2022/09/10 08:04:08;;;;;;;16.70;8.63;;;;;;;21.29;85.10;98646.84;1727148;83;21626;-79
2022/09/10 08:06:37;;;;;;;15.45;9.60;;;;;;;21.43;84.12;98641.39;1707224;84;21000;-79
2022/09/10 08:09:08;;;;;;;18.15;8.55;;;;;;;21.49;83.61;98633.44;1706239;84;21007;-78
2022/09/10 08:11:39;;;;;;;13.90;7.87;;;;;;;21.66;83.15;98631.66;1706760;84;21004;-78
2022/09/10 08:14:08;;;;;;;17.12;8.00;;;;;;;21.76;81.95;98637.08;1728168;82;21035;-79
2022/09/10 08:16:35;;;;;;;13.53;7.50;;;;;;;21.88;82.36;98637.42;1742090;82;21507;-78
2022/09/10 08:19:04;;;;;;;12.55;7.75;;;;;;;22.00;82.46;98636.48;1722046;82;21594;-79
2022/09/10 08:21:31;;;;;;;15.83;8.65;;;;;;;22.12;79.81;98634.63;1737111;82;21548;-79
2022/09/10 08:23:59;;;;;;;11.68;7.72;;;;;;;22.21;78.60;98631.25;1723739;83;21031;-79
2022/09/10 08:26:26;;;;;;;10.95;8.23;;;;;;;22.32;80.23;98632.22;1723994;82;21031;-78
2022/09/10 08:28:56;;;;;;;13.43;8.43;;;;;;;22.50;80.23;98627.23;1736526;82;21539;-79
2022/09/10 08:31:25;;;;;;;14.98;7.40;;;;;;;22.61;78.69;98629.85;1722084;82;21016;-79
2022/09/10 08:33:56;;;;;;;11.60;6.78;;;;;;;22.75;77.69;98631.36;1741048;82;21544;-80
2022/09/10 08:36:24;;;;;;;12.33;6.75;;;;;;;22.93;76.78;98640.92;1754847;81;21019;-80
2022/09/10 08:38:53;;;;;;;14.58;7.05;;;;;;;23.08;74.39;98636.16;1743167;82;21019;-78
2022/09/10 08:41:38;;;;;;;12.20;6.80;;;;;;;23.22;75.20;98634.53;1730142;83;21099;-80
2022/09/10 08:44:18;;;;;;;12.15;6.22;;;;;;;23.39;73.15;98635.73;1732600;81;20999;-81
2022/09/10 08:46:55;;;;;;;15.68;6.17;;;;;;;23.57;73.04;98624.03;1719493;83;21598;-79
2022/09/10 08:49:59;;;;;;;10.43;5.85;;;;;;;23.74;73.57;98619.44;1732291;82;21094;-79
2022/09/10 08:52:43;;;;;;;;;;;;;;;23.88;72.51;98618.27;1764334;81;21032;-80
2022/09/10 08:55:23;;;;;;;11.83;6.60;;;;;;;24.06;70.97;98613.14;1726970;83;20129;-80
2022/09/10 08:58:05;;;;;;;13.25;6.50;;;;;;;24.14;69.15;98615.13;1741963;82;20987;-80
2022/09/10 09:00:37;;;;;;;10.75;6.25;;;;;;;24.16;68.46;98594.58;1740637;82;21559;-79
2022/09/10 09:03:28;;;;;;;17.45;6.28;;;;;;;24.21;68.27;98588.35;1740725;82;21056;-79
2022/09/10 09:06:01;;;;;;;12.35;6.10;;;;;;;24.20;67.39;98590.67;1740521;82;21001;-79
2022/09/10 09:08:40;;;;;;;10.32;6.25;;;;;;;24.26;66.60;98586.62;1737333;82;21003;-79
2022/09/10 09:11:42;;;;;;;14.00;5.70;;;;;;;24.33;68.16;98577.98;1739131;82;21049;-79
2022/09/10 09:14:42;;;;;;;12.53;5.90;;;;;;;24.43;66.21;98581.94;1714115;83;21059;-80
2022/09/10 09:17:36;;;;;;;14.75;5.97;;;;;;;24.49;65.67;98577.89;1707675;82;21522;-79
2022/09/10 09:20:17;;;;;;;10.20;5.55;;;;;;;24.52;63.80;98582.97;1721264;83;21168;-79
2022/09/10 09:23:07;;;;;;;14.95;6.35;;;;;;;24.59;63.68;98570.31;1718993;82;21015;-79
2022/09/10 09:25:50;;;;;;;12.80;6.60;;;;;;;24.70;62.59;98575.97;1738594;82;21099;-79
2022/09/10 09:28:40;;;;;;;10.45;6.05;;;;;;;24.78;63.36;98574.77;1736230;82;21059;-79
2022/09/10 09:31:22;;;;;;;11.20;6.42;;;;;;;24.90;62.52;98565.31;1706882;82;21040;-79
2022/09/10 09:33:52;;;;;;;15.60;6.53;;;;;;;24.99;62.28;98576.44;1743259;82;20975;-80
2022/09/10 09:36:24;;;;;;;10.35;6.70;;;;;;;25.12;62.48;98568.97;1731478;83;20992;-79
2022/09/10 09:38:51;;;;;;;10.85;6.25;;;;;;;25.11;61.02;98575.75;1732044;83;21036;-80
2022/09/10 09:41:40;;;;;;;14.15;7.08;;;;;;;25.22;61.26;98563.66;1742215;82;21015;-80
2022/09/10 09:44:34;;;;;;;10.20;6.17;;;;;;;25.23;61.63;98556.50;1712700;82;20979;-79
2022/09/10 09:47:00;;;;;;;9.90;6.20;;;;;;;25.37;61.39;98548.08;1723593;82;21563;-79
2022/09/10 09:49:28;;;;;;;15.28;6.50;;;;;;;25.48;61.05;98548.38;1714064;82;21039;-78
2022/09/10 09:51:55;;;;;;;11.10;6.17;;;;;;;25.62;61.37;98549.71;1719296;82;21003;-78
2022/09/10 09:54:25;;;;;;;9.95;6.35;;;;;;;25.83;61.07;98546.31;1721888;82;21579;-78
2022/09/10 09:56:57;;;;;;;10.35;5.80;;;;;;;26.02;61.07;98551.20;1710404;82;21000;-79
2022/09/10 09:59:36;;;;;;;9.58;5.95;;;;;;;26.17;58.75;98548.38;1695761;83;21035;-79
2022/09/10 10:02:13;;;;;;;13.85;6.42;;;;;;;26.24;58.42;98553.92;1697162;83;21023;-78
2022/09/10 10:05:01;;;;;;;11.50;5.95;;;;;;;26.29;57.64;98548.98;1725114;82;21030;-79
2022/09/10 10:07:32;;;;;;;7.42;5.35;;;;;;;26.48;58.36;98550.17;1704792;82;21547;-80
2022/09/10 10:10:00;;;;;;;14.55;5.70;;;;;;;26.54;58.14;98556.69;1722696;83;20999;-78
2022/09/10 10:12:30;;;;;;;9.08;5.22;;;;;;;26.50;57.33;98546.86;1723048;82;21038;-78
2022/09/10 10:14:59;;;;;;;9.63;5.62;;;;;;;26.55;56.36;98545.88;1722381;82;21043;-79
2022/09/10 10:17:40;;;;;;;9.20;5.08;;;;;;;26.65;56.98;98539.16;1745678;82;21451;-81
2022/09/10 10:20:14;;;;;;;7.83;5.47;;;;;;;26.67;55.47;98545.18;1739812;80;21046;-81
2022/09/10 10:22:43;;;;;;;10.40;5.15;;;;;;;26.65;55.42;98536.50;1749226;82;20979;-79
2022/09/10 10:25:37;;;;;;;12.05;5.25;;;;;;;26.69;52.39;98547.19;1750177;80;21034;-79
2022/09/10 10:28:20;;;;;;;8.18;4.58;;;;;;;26.77;52.80;98543.25;1733727;82;20986;-79
2022/09/10 10:30:52;;;;;;;;;;;;;;;26.84;51.12;98550.63;1738158;82;21014;-79
2022/09/10 10:33:23;;;;;;;15.30;5.28;;;;;;;26.86;49.01;98545.50;1747717;82;20142;-77
2022/09/10 10:36:16;;;;;;;7.17;4.53;;;;;;;26.75;47.20;98547.91;1735027;80;20994;-79
2022/09/10 10:38:54;;;;;;;9.08;5.17;;;;;;;26.64;48.56;98532.17;1733963;81;21010;-79
2022/09/10 10:41:26;;;;;;;9.40;5.10;;;;;;;26.50;49.10;98546.00;1748092;81;21017;-79
2022/09/10 10:44:17;;;;;;;8.18;4.58;;;;;;;26.21;50.20;98548.41;1750238;82;21039;-78
2022/09/10 10:47:27;;;;;;;8.98;4.72;;;;;;;26.17;50.25;98543.05;1744073;82;21106;-79
2022/09/10 10:50:24;;;;;;;10.13;5.00;;;;;;;26.17;51.46;98548.38;1709750;82;21063;-78
2022/09/10 10:52:59;;;;;;;7.65;4.70;;;;;;;26.08;51.77;98523.95;1754118;80;20975;-78
2022/09/10 10:55:52;;;;;;;7.72;5.00;;;;;;;26.04;51.65;98533.24;1744215;81;20975;-78
2022/09/10 10:58:30;;;;;;;8.35;4.42;;;;;;;26.02;52.28;98532.05;1749198;82;21030;-79
2022/09/10 11:01:08;;;;;;;10.72;4.67;;;;;;;26.20;52.60;98536.06;1749683;80;20987;-79
2022/09/10 11:03:43;;;;;;;8.93;4.40;;;;;;;26.39;50.82;98547.91;1731391;81;21042;-79
2022/09/10 11:06:15;;;;;;;9.43;4.78;;;;;;;26.59;49.77;98545.12;1732963;82;20983;-79
2022/09/10 11:08:57;;;;;;;8.90;5.00;;;;;;;26.57;49.82;98557.23;1742125;82;21038;-79
2022/09/10 11:11:31;;;;;;;8.50;5.05;;;;;;;26.61;50.74;98551.13;1739552;82;21558;-79
2022/09/10 11:14:22;;;;;;;8.85;4.75;;;;;;;26.62;50.10;98554.16;1751878;81;21002;-79
2022/09/10 11:16:58;;;;;;;9.20;4.72;;;;;;;26.57;50.51;98549.23;1759646;81;21024;-79
2022/09/10 11:19:42;;;;;;;6.28;4.40;;;;;;;26.56;50.93;98550.23;1729028;83;21012;-78
2022/09/10 11:22:24;;;;;;;7.60;4.40;;;;;;;26.58;51.94;98539.42;1735701;81;21771;-78
2022/09/10 11:25:08;;;;;;;7.50;4.42;;;;;;;26.48;51.90;98535.98;1733932;83;21066;-80
2022/09/10 11:27:43;;;;;;;7.97;4.45;;;;;;;26.62;51.10;98535.49;1761369;81;21029;-81
2022/09/10 11:30:15;;;;;;;12.03;5.87;;;;;;;27.00;49.16;98536.09;1761204;81;21017;-80
2022/09/10 11:32:50;;;;;;;9.50;4.90;;;;;;;27.18;48.35;98538.70;1758685;81;20991;-81
2022/09/10 11:35:31;;;;;;;8.30;4.62;;;;;;;27.29;48.51;98541.11;1755014;81;21592;-81
2022/09/10 11:38:24;;;;;;;8.98;4.55;;;;;;;27.37;48.32;98537.15;1757181;81;21051;-81
2022/09/10 11:41:12;;;;;;;6.85;4.20;;;;;;;27.75;49.38;98539.48;1746227;82;21018;-81
2022/09/10 11:44:05;;;;;;;9.90;4.25;;;;;;;27.55;46.81;98538.39;1739836;82;21494;-80
2022/09/10 11:46:56;;;;;;;7.25;3.90;;;;;;;27.49;46.75;98546.22;1742620;82;21007;-79
2022/09/10 11:49:28;;;;;;;7.70;4.05;;;;;;;27.32;47.87;98546.66;1740390;82;21093;-80